createdAt,value
2019-03-02T00:00:44.525Z,81.73
2019-03-02T00:03:12.095Z,90.47
2019-03-02T00:05:40.322Z,77.23
2019-03-02T00:08:07.880Z,80.03
2019-03-02T00:10:36.945Z,84.53
2019-03-02T00:13:07.412Z,82.37
2019-03-02T00:15:33.860Z,77.97
2019-03-02T00:18:08.697Z,90.10
2019-03-02T00:20:36.332Z,86.17
2019-03-02T00:23:22.151Z,81.13
2019-03-02T00:29:02.054Z,86.53
2019-03-02T00:34:38.158Z,84.53
2019-03-02T00:40:13.723Z,86.17
2019-03-02T00:42:41.302Z,82.20
2019-03-02T00:45:10.681Z,93.10
2019-03-02T00:47:52.816Z,82.53
2019-03-02T00:50:20.319Z,87.27
2019-03-02T00:52:48.341Z,86.53
2019-03-02T00:55:16.089Z,87.13
2019-03-02T00:57:43.854Z,94.53
2019-03-02T01:00:15.392Z,93.00
2019-03-02T01:02:42.005Z,89.77
2019-03-02T01:05:09.666Z,83.73
2019-03-02T01:07:38.831Z,81.60
2019-03-02T01:10:08.181Z,82.87
2019-03-02T01:12:35.625Z,91.07
2019-03-02T01:15:12.729Z,90.10
2019-03-02T01:17:40.593Z,93.13
2019-03-02T01:20:08.886Z,89.83
2019-03-02T01:22:37.073Z,99.87
2019-03-02T01:25:05.196Z,103.87
2019-03-02T01:27:35.052Z,98.93
2019-03-02T01:30:02.015Z,97.43
2019-03-02T01:32:29.566Z,92.00
2019-03-02T01:34:58.522Z,93.27
2019-03-02T01:37:25.985Z,95.90
2019-03-02T01:39:53.565Z,91.37
2019-03-02T01:42:21.133Z,91.53
2019-03-02T01:44:51.750Z,91.63
2019-03-02T01:47:18.464Z,96.20
2019-03-02T01:49:47.025Z,89.67
2019-03-02T01:52:14.495Z,93.73
2019-03-02T01:54:41.942Z,93.63
2019-03-02T01:57:09.488Z,95.23
2019-03-02T01:59:38.670Z,97.40
2019-03-02T02:02:06.704Z,94.27
2019-03-02T02:04:34.469Z,97.83
2019-03-02T02:07:02.326Z,98.40
2019-03-02T02:09:30.352Z,100.37
2019-03-02T02:11:57.931Z,104.63
2019-03-02T02:14:25.540Z,100.37
2019-03-02T02:16:53.445Z,95.77
2019-03-02T02:19:21.465Z,95.92
2019-03-02T02:21:49.155Z,101.73
2019-03-02T02:24:16.604Z,88.07
2019-03-02T02:26:46.886Z,90.97
2019-03-02T02:29:13.485Z,104.90
2019-03-02T02:31:45.116Z,95.13
2019-03-02T02:34:10.359Z,89.00
2019-03-02T02:36:37.934Z,95.80
2019-03-02T02:39:06.255Z,94.77
2019-03-02T02:41:34.177Z,93.00
2019-03-02T02:44:02.126Z,97.50
2019-03-02T02:46:32.494Z,91.70
2019-03-02T02:48:59.025Z,96.80
2019-03-02T02:51:26.600Z,100.23
2019-03-02T02:53:54.265Z,91.17
2019-03-02T02:56:22.212Z,103.03
2019-03-02T02:58:55.276Z,83.03
2019-03-02T03:01:19.284Z,85.27
2019-03-02T03:03:46.878Z,82.03
2019-03-02T03:06:14.702Z,84.17
2019-03-02T03:08:43.107Z,82.00
2019-03-02T03:11:11.264Z,78.73
2019-03-02T03:13:40.793Z,84.93
2019-03-02T03:16:11.492Z,78.17
2019-03-02T03:18:40.618Z,88.60
2019-03-02T03:21:08.135Z,81.43
2019-03-02T03:23:35.710Z,82.17
2019-03-02T03:26:03.574Z,84.90
2019-03-02T03:28:32.966Z,80.80
2019-03-02T03:31:00.634Z,84.93
2019-03-02T03:33:41.702Z,88.40
2019-03-02T03:35:57.790Z,78.67
2019-03-02T03:38:29.455Z,82.63
2019-03-02T03:41:00.230Z,79.87
2019-03-02T03:43:25.059Z,89.20
2019-03-02T03:45:52.605Z,79.30
2019-03-02T03:48:20.170Z,85.33
2019-03-02T03:50:48.028Z,80.20
2019-03-02T03:53:17.363Z,81.97
2019-03-02T03:55:44.897Z,77.43
2019-03-02T03:58:13.087Z,85.13
2019-03-02T04:00:40.651Z,77.10
2019-03-02T04:03:08.899Z,88.53
2019-03-02T04:05:42.266Z,79.77
2019-03-02T04:08:08.325Z,75.60
2019-03-02T04:10:35.880Z,77.40
2019-03-02T04:13:04.848Z,81.03
2019-03-02T04:15:40.720Z,77.93
2019-03-02T04:18:04.286Z,76.57
2019-03-02T04:20:33.654Z,76.87
2019-03-02T04:23:02.318Z,69.70
2019-03-02T04:25:30.202Z,65.90
2019-03-02T04:27:57.756Z,64.53
2019-03-02T04:30:30.398Z,69.47
2019-03-02T04:32:55.029Z,63.47
2019-03-02T04:35:22.593Z,67.03
2019-03-02T04:37:50.162Z,67.97
2019-03-02T04:40:18.001Z,64.00
2019-03-02T04:42:46.553Z,60.30
2019-03-02T04:45:15.091Z,59.10
2019-03-02T04:47:43.011Z,53.30
2019-03-02T04:50:10.826Z,56.43
2019-03-02T04:52:38.869Z,49.70
2019-03-02T04:55:09.385Z,49.20
2019-03-02T04:57:36.378Z,46.80
2019-03-02T05:00:06.443Z,47.40
2019-03-02T05:02:33.904Z,47.47
2019-03-02T05:05:04.863Z,51.67
2019-03-02T05:07:31.035Z,49.63
2019-03-02T05:09:58.929Z,47.83
2019-03-02T05:12:26.429Z,45.43
2019-03-02T05:14:54.010Z,49.90
2019-03-02T05:17:21.667Z,41.23
2019-03-02T05:19:49.226Z,38.67
2019-03-02T05:22:18.750Z,45.80
2019-03-02T05:24:46.541Z,43.73
2019-03-02T05:27:14.497Z,39.03
2019-03-02T05:29:41.988Z,40.17
2019-03-02T05:32:12.618Z,37.13
2019-03-02T05:34:39.712Z,39.23
2019-03-02T05:37:07.373Z,39.07
2019-03-02T05:39:35.139Z,38.20
2019-03-02T05:42:02.684Z,37.73
2019-03-02T05:44:30.252Z,37.93
2019-03-02T05:47:01.355Z,39.87
2019-03-02T05:49:27.170Z,41.17
2019-03-02T05:51:55.134Z,33.97
2019-03-02T05:54:23.798Z,38.37
2019-03-02T05:56:51.587Z,38.07
2019-03-02T05:59:22.807Z,37.97
2019-03-02T06:01:48.804Z,36.07
2019-03-02T06:04:18.764Z,35.60
2019-03-02T06:06:58.358Z,41.40
2019-03-02T06:09:26.248Z,35.17
2019-03-02T06:11:53.813Z,38.63
2019-03-02T06:14:22.527Z,36.33
2019-03-02T06:16:50.085Z,36.00
2019-03-02T06:19:23.258Z,38.47
2019-03-02T06:21:47.140Z,38.73
2019-03-02T06:24:15.538Z,40.23
2019-03-02T06:26:43.269Z,40.63
2019-03-02T06:29:10.950Z,35.13
2019-03-02T06:31:38.416Z,35.80
2019-03-02T06:34:05.977Z,39.70
2019-03-02T06:36:33.559Z,39.03
2019-03-02T06:39:03.927Z,36.67
2019-03-02T06:41:33.163Z,39.77
2019-03-02T06:44:00.173Z,47.53
2019-03-02T06:46:27.669Z,44.67
2019-03-02T06:48:55.243Z,42.30
2019-03-02T06:51:23.006Z,38.63
2019-03-02T06:53:50.690Z,50.07
2019-03-02T06:59:00.604Z,49.37
2019-03-02T07:01:26.663Z,49.43
2019-03-02T07:03:54.247Z,56.20
2019-03-02T07:06:22.062Z,54.50
2019-03-02T07:08:49.751Z,56.80
2019-03-02T07:11:17.313Z,54.40
2019-03-02T07:13:44.911Z,49.87
2019-03-02T07:16:12.456Z,54.37
2019-03-02T07:18:51.850Z,56.30
2019-03-02T07:21:19.397Z,53.97
2019-03-02T07:23:46.973Z,55.10
2019-03-02T07:26:15.859Z,50.00
2019-03-02T07:28:43.920Z,50.00
2019-03-02T07:31:11.474Z,49.47
2019-03-02T07:33:39.073Z,50.27
2019-03-02T07:36:06.635Z,50.63
2019-03-02T07:38:34.528Z,57.43
2019-03-02T07:41:02.076Z,47.70
2019-03-02T07:43:30.899Z,48.37
2019-03-02T07:45:58.760Z,43.97
2019-03-02T07:48:27.381Z,45.77
2019-03-02T07:50:54.929Z,44.10
2019-03-02T07:53:25.013Z,49.67
2019-03-02T07:55:53.627Z,42.87
2019-03-02T07:58:21.539Z,40.90
2019-03-02T08:00:49.441Z,40.27
2019-03-02T08:03:17.056Z,38.97
2019-03-02T08:05:46.915Z,40.17
2019-03-02T08:08:15.043Z,39.23
2019-03-02T08:10:42.647Z,37.83
2019-03-02T08:13:11.292Z,44.87
2019-03-02T08:15:38.861Z,38.57
2019-03-02T08:18:06.435Z,40.87
2019-03-02T08:20:34.306Z,41.63
2019-03-02T08:23:01.781Z,39.30
2019-03-02T08:25:29.372Z,38.70
2019-03-02T08:27:57.329Z,32.87
2019-03-02T08:30:25.299Z,39.30
2019-03-02T08:32:53.999Z,37.00
2019-03-02T08:35:22.840Z,35.90
2019-03-02T08:37:50.476Z,37.27
2019-03-02T08:40:19.232Z,38.53
2019-03-02T08:42:47.712Z,37.20
2019-03-02T08:45:15.528Z,36.57
2019-03-02T08:47:43.074Z,36.53
2019-03-02T08:50:13.923Z,36.10
2019-03-02T08:52:41.030Z,36.97
2019-03-02T08:55:11.951Z,36.10
2019-03-02T08:57:39.483Z,37.30
2019-03-02T09:00:09.049Z,39.73
2019-03-02T09:02:36.649Z,32.33
2019-03-02T09:05:04.525Z,29.80
2019-03-02T09:07:32.317Z,35.27
2019-03-02T09:10:00.243Z,37.17
2019-03-02T09:12:28.158Z,34.50
2019-03-02T09:14:55.792Z,31.57
2019-03-02T09:17:23.668Z,34.17
2019-03-02T09:19:51.214Z,33.80
2019-03-02T09:22:20.851Z,36.30
2019-03-02T09:24:49.095Z,33.30
2019-03-02T09:27:16.797Z,34.53
2019-03-02T09:29:44.338Z,34.87
2019-03-02T09:32:14.122Z,32.80
2019-03-02T09:34:41.687Z,32.20
2019-03-02T09:37:09.287Z,30.87
2019-03-02T09:39:38.149Z,30.83
2019-03-02T09:42:05.971Z,35.73
2019-03-02T09:44:36.252Z,26.93
2019-03-02T09:47:05.096Z,28.00
2019-03-02T09:49:33.870Z,31.83
2019-03-02T09:52:02.086Z,27.37
2019-03-02T09:54:29.606Z,29.47
2019-03-02T09:56:57.375Z,30.63
2019-03-02T09:59:24.918Z,31.47
2019-03-02T10:01:52.701Z,31.30
2019-03-02T10:04:20.843Z,31.87
2019-03-02T10:06:50.339Z,26.27
2019-03-02T10:09:17.806Z,28.03
2019-03-02T10:11:45.374Z,31.87
2019-03-02T10:14:24.726Z,24.63
2019-03-02T10:16:52.462Z,28.90
2019-03-02T10:19:20.065Z,27.97
2019-03-02T10:21:48.757Z,32.23
2019-03-02T10:24:17.167Z,25.97
2019-03-02T10:26:46.060Z,32.33
2019-03-02T10:29:13.637Z,25.57
2019-03-02T10:31:43.948Z,31.23
2019-03-02T10:34:10.872Z,24.97
2019-03-02T10:36:38.743Z,29.87
2019-03-02T10:39:06.925Z,28.57
2019-03-02T10:41:34.458Z,27.77
2019-03-02T10:44:04.410Z,34.43
2019-03-02T10:46:32.208Z,30.87
2019-03-02T10:48:59.697Z,34.50
2019-03-02T10:51:27.362Z,35.67
2019-03-02T10:53:55.816Z,35.47
2019-03-02T10:56:24.795Z,34.33
2019-03-02T10:58:53.561Z,32.70
2019-03-02T11:01:20.988Z,37.03
2019-03-02T11:03:48.816Z,39.17
2019-03-02T11:06:33.114Z,36.10
2019-03-02T11:09:32.802Z,37.80
2019-03-02T11:12:28.987Z,34.27
2019-03-02T11:15:12.952Z,40.90
2019-03-02T11:18:03.039Z,40.20
2019-03-02T11:20:50.109Z,45.20
2019-03-02T11:23:46.248Z,40.80
2019-03-02T11:26:29.416Z,35.70
2019-03-02T11:29:01.951Z,41.00
2019-03-02T11:31:46.250Z,32.43
2019-03-02T11:34:35.302Z,40.87
2019-03-02T11:37:25.644Z,36.23
2019-03-02T11:40:13.690Z,36.57
2019-03-02T11:43:00.680Z,33.93
2019-03-02T11:45:45.013Z,29.60
2019-03-02T11:48:28.521Z,29.93
2019-03-02T11:51:14.930Z,33.23
2019-03-02T11:54:01.811Z,29.53
2019-03-02T11:56:46.737Z,25.13
2019-03-02T11:59:34.122Z,27.87
2019-03-02T12:02:23.857Z,30.27
2019-03-02T12:05:12.871Z,26.27
2019-03-02T12:08:02.691Z,24.47
2019-03-02T12:10:42.997Z,25.80
2019-03-02T12:13:42.410Z,26.43
2019-03-02T12:16:29.144Z,27.87
2019-03-02T12:19:19.418Z,27.97
2019-03-02T12:21:58.775Z,30.50
2019-03-02T12:24:50.890Z,27.47
2019-03-02T12:27:38.302Z,30.87
2019-03-02T12:30:15.604Z,22.70
2019-03-02T12:33:22.132Z,26.73
2019-03-02T12:35:59.591Z,29.20
2019-03-02T12:38:44.566Z,22.73
2019-03-02T12:41:31.570Z,20.83
2019-03-02T12:44:08.420Z,22.57
2019-03-02T12:46:59.271Z,20.10
2019-03-02T12:49:59.589Z,22.83
2019-03-02T12:52:41.553Z,22.97
2019-03-02T12:55:37.785Z,20.20
2019-03-02T12:58:16.085Z,16.87
2019-03-02T13:01:01.721Z,17.47
2019-03-02T13:03:36.000Z,15.90
2019-03-02T13:06:18.164Z,15.80
2019-03-02T13:09:04.767Z,12.17
2019-03-02T13:11:54.992Z,16.37
2019-03-02T13:14:44.413Z,12.30
2019-03-02T13:17:33.124Z,13.57
2019-03-02T13:20:18.142Z,15.27
2019-03-02T13:23:08.171Z,13.60
2019-03-02T13:25:56.023Z,14.30
2019-03-02T13:28:37.033Z,12.87
2019-03-02T13:31:40.195Z,17.63
2019-03-02T13:34:23.855Z,13.27
2019-03-02T13:37:12.249Z,15.20
2019-03-02T13:39:51.201Z,16.13
2019-03-02T13:42:46.914Z,14.07
2019-03-02T13:45:55.093Z,14.63
2019-03-02T13:48:36.663Z,14.77
2019-03-02T13:51:37.434Z,15.73
2019-03-02T13:54:27.394Z,14.17
2019-03-02T13:57:12.818Z,16.43
2019-03-02T13:59:49.131Z,17.33
2019-03-02T14:02:35.196Z,18.80
2019-03-02T14:05:22.366Z,19.83
2019-03-02T14:08:12.439Z,15.87
2019-03-02T14:10:50.425Z,17.53
2019-03-02T14:13:36.146Z,15.27
2019-03-02T14:16:11.990Z,18.23
2019-03-02T14:19:05.846Z,15.23
2019-03-02T14:21:50.332Z,14.07
2019-03-02T14:24:37.690Z,13.47
2019-03-02T14:27:24.365Z,12.97
2019-03-02T14:30:06.793Z,14.07
2019-03-02T14:32:59.674Z,11.83
2019-03-02T14:35:53.192Z,12.83
2019-03-02T14:38:57.260Z,16.03
2019-03-02T14:41:41.446Z,8.87
2019-03-02T14:44:40.867Z,10.73
2019-03-02T14:47:46.043Z,11.10
2019-03-02T14:50:36.161Z,9.77
2019-03-02T14:53:26.082Z,17.00
2019-03-02T14:56:13.760Z,23.57
2019-03-02T14:59:06.192Z,20.67
2019-03-02T15:01:54.255Z,18.67
2019-03-02T15:04:53.250Z,19.40
2019-03-02T15:07:40.306Z,18.57
2019-03-02T15:10:28.336Z,19.67
2019-03-02T15:13:29.484Z,16.97
2019-03-02T15:16:16.143Z,16.67
2019-03-02T15:19:02.344Z,13.20
2019-03-02T15:21:55.646Z,12.20
2019-03-02T15:24:36.234Z,10.00
2019-03-02T15:27:20.295Z,12.40
2019-03-02T15:30:09.533Z,10.73
2019-03-02T15:32:57.580Z,10.83
2019-03-02T15:35:40.961Z,9.23
2019-03-02T15:38:20.841Z,8.97
2019-03-02T15:41:09.198Z,8.00
2019-03-02T15:43:59.671Z,6.97
2019-03-02T15:46:59.746Z,7.30
2019-03-02T15:49:44.049Z,6.13
2019-03-02T15:52:34.040Z,6.03
2019-03-02T15:55:21.118Z,11.67
2019-03-02T15:58:00.899Z,5.33
2019-03-02T16:00:59.159Z,8.87
2019-03-02T16:04:04.851Z,7.50
2019-03-02T16:06:55.127Z,7.80
2019-03-02T16:09:51.238Z,8.13
2019-03-02T16:12:50.194Z,7.73
2019-03-02T16:15:35.189Z,6.53
2019-03-02T16:18:23.669Z,7.27
2019-03-02T16:21:07.022Z,6.23
2019-03-02T16:23:48.546Z,4.57
2019-03-02T16:26:35.033Z,5.87
2019-03-02T16:29:40.141Z,5.20
2019-03-02T16:32:27.096Z,11.47
2019-03-02T16:35:11.595Z,8.37
2019-03-02T16:37:57.232Z,8.47
2019-03-02T16:40:43.159Z,7.50
2019-03-02T16:43:36.443Z,7.57
2019-03-02T16:46:17.607Z,6.10
2019-03-02T16:49:06.150Z,8.10
2019-03-02T16:51:53.345Z,12.73
2019-03-02T16:54:47.346Z,7.20
2019-03-02T16:57:41.129Z,5.80
2019-03-02T17:00:18.402Z,5.97
2019-03-02T17:03:02.913Z,4.77
2019-03-02T17:05:49.531Z,7.47
2019-03-02T17:08:36.729Z,6.43
2019-03-02T17:11:27.048Z,6.70
2019-03-02T17:14:15.055Z,6.63
2019-03-02T17:17:00.542Z,7.00
2019-03-02T17:19:37.817Z,6.27
2019-03-02T17:22:14.163Z,10.80
2019-03-02T17:24:52.014Z,6.80
2019-03-02T17:27:37.712Z,6.33
2019-03-02T17:30:34.274Z,8.97
2019-03-02T17:33:36.544Z,10.03
2019-03-02T17:36:26.381Z,8.97
2019-03-02T17:39:23.663Z,11.07
2019-03-02T17:42:15.903Z,11.43
2019-03-02T17:45:03.555Z,8.37
2019-03-02T17:48:03.347Z,6.63
2019-03-02T17:50:39.052Z,10.37
2019-03-02T17:53:15.082Z,12.87
2019-03-02T17:56:04.773Z,14.60
2019-03-02T17:59:09.121Z,5.63
2019-03-02T18:02:00.412Z,11.03
2019-03-02T18:04:53.429Z,16.50
2019-03-02T18:07:38.855Z,10.47
2019-03-02T18:10:26.689Z,11.97
2019-03-02T18:13:15.932Z,17.23
2019-03-02T18:16:06.682Z,11.23
2019-03-02T18:18:34.503Z,11.93
2019-03-02T18:21:02.136Z,10.67
2019-03-02T18:23:29.749Z,12.37
2019-03-02T18:25:57.600Z,16.77
2019-03-02T18:28:25.195Z,15.17
2019-03-02T18:30:52.887Z,12.13
2019-03-02T18:33:47.700Z,10.23
2019-03-02T18:36:15.690Z,9.50
2019-03-02T18:38:44.519Z,11.40
2019-03-02T18:41:16.701Z,16.40
2019-03-02T18:43:44.820Z,17.73
2019-03-02T18:46:16.564Z,17.37
2019-03-02T18:48:49.970Z,12.67
2019-03-02T18:51:29.690Z,17.27
2019-03-02T18:54:12.044Z,14.53
2019-03-02T18:56:40.388Z,19.97
2019-03-02T18:59:08.702Z,19.27
2019-03-02T19:01:36.601Z,13.23
2019-03-02T19:04:04.720Z,13.53
2019-03-02T19:06:32.700Z,17.27
2019-03-02T19:09:01.343Z,19.73
2019-03-02T19:11:29.086Z,12.23
2019-03-02T19:13:56.732Z,19.27
2019-03-02T19:16:24.367Z,14.97
2019-03-02T19:18:52.037Z,16.50
2019-03-02T19:21:19.962Z,17.83
2019-03-02T19:23:47.911Z,13.73
2019-03-02T19:26:15.564Z,16.03
2019-03-02T19:28:43.162Z,18.97
2019-03-02T19:31:10.798Z,18.13
2019-03-02T19:33:38.747Z,13.27
2019-03-02T19:36:07.122Z,11.97
2019-03-02T19:38:34.739Z,17.53
2019-03-02T19:41:02.812Z,15.03
2019-03-02T19:43:30.414Z,12.00
2019-03-02T19:45:58.773Z,19.53
2019-03-02T19:48:26.733Z,21.17
2019-03-02T19:50:54.388Z,15.33
2019-03-02T19:53:22.016Z,16.67
2019-03-02T19:55:49.658Z,16.80
2019-03-02T19:58:17.855Z,21.70
2019-03-02T20:00:45.429Z,13.73
2019-03-02T20:03:13.324Z,11.00
2019-03-02T20:05:40.926Z,15.13
2019-03-02T20:08:08.867Z,15.73
2019-03-02T20:10:36.570Z,12.17
2019-03-02T20:13:04.419Z,18.53
2019-03-02T20:15:32.019Z,16.77
2019-03-02T20:17:59.601Z,15.20
2019-03-02T20:20:27.806Z,16.63
2019-03-02T20:22:55.358Z,13.63
2019-03-02T20:25:23.787Z,13.50
2019-03-02T20:27:51.386Z,17.27
2019-03-02T20:30:19.020Z,13.53
2019-03-02T20:32:47.256Z,20.33
2019-03-02T20:35:15.972Z,19.70
2019-03-02T20:37:43.584Z,21.00
2019-03-02T20:40:12.229Z,13.63
2019-03-02T20:42:40.905Z,14.83
2019-03-02T20:45:09.587Z,13.70
2019-03-02T20:47:37.639Z,12.60
2019-03-02T20:50:05.632Z,14.80
2019-03-02T20:52:33.646Z,14.10
2019-03-02T20:55:01.259Z,16.20
2019-03-02T20:57:28.911Z,14.70
2019-03-02T20:59:56.511Z,12.30
2019-03-02T21:02:24.125Z,12.57
2019-03-02T21:04:51.738Z,18.80
2019-03-02T21:07:19.708Z,17.40
2019-03-02T21:09:47.333Z,18.70
2019-03-02T21:12:15.173Z,11.87
2019-03-02T21:14:42.931Z,15.97
2019-03-02T21:17:10.698Z,16.23
2019-03-02T21:19:38.688Z,16.73
2019-03-02T21:22:06.662Z,15.23
2019-03-02T21:24:34.194Z,16.00
2019-03-02T21:27:02.308Z,14.13
2019-03-02T21:29:29.938Z,9.00
2019-03-02T21:31:58.838Z,11.93
2019-03-02T21:34:26.465Z,16.03
2019-03-02T21:36:54.071Z,12.27
2019-03-02T21:39:22.103Z,11.57
2019-03-02T21:41:49.768Z,14.85
2019-03-02T21:44:17.691Z,16.23
2019-03-02T21:46:45.324Z,11.47
2019-03-02T21:49:13.081Z,11.53
2019-03-02T21:51:40.721Z,9.37
2019-03-02T21:54:08.468Z,13.97
2019-03-02T21:56:36.140Z,14.23
2019-03-02T21:59:03.745Z,8.83
2019-03-02T22:01:31.773Z,13.53
2019-03-02T22:03:59.410Z,9.63
2019-03-02T22:06:27.109Z,13.57
2019-03-02T22:08:54.706Z,13.07
2019-03-02T22:11:22.433Z,7.57
2019-03-02T22:13:50.109Z,9.83
2019-03-02T22:16:17.645Z,10.97
2019-03-02T22:18:45.261Z,9.03
2019-03-02T22:21:13.029Z,8.10
2019-03-02T22:23:40.983Z,12.00
2019-03-02T22:26:09.009Z,10.80
2019-03-02T22:28:36.639Z,8.97
2019-03-02T22:31:04.606Z,9.50
2019-03-02T22:33:32.632Z,12.27
2019-03-02T22:36:00.163Z,11.07
2019-03-02T22:38:27.769Z,8.67
2019-03-02T22:40:55.291Z,7.93
2019-03-02T22:43:23.250Z,7.27
2019-03-02T22:45:51.220Z,7.23
2019-03-02T22:48:18.850Z,8.63
2019-03-02T22:50:46.889Z,6.37
2019-03-02T22:53:14.714Z,7.47
2019-03-02T22:55:42.316Z,9.07
2019-03-02T22:58:09.957Z,13.83
2019-03-02T23:00:52.861Z,5.70
2019-03-02T23:03:20.342Z,8.07
2019-03-02T23:05:48.295Z,8.33
2019-03-02T23:08:16.279Z,5.97
2019-03-02T23:10:43.992Z,9.13
2019-03-02T23:13:11.618Z,5.57
2019-03-02T23:15:39.653Z,6.30
2019-03-02T23:18:07.687Z,7.17
2019-03-02T23:20:35.295Z,6.27
2019-03-02T23:23:02.930Z,7.37
2019-03-02T23:25:30.936Z,8.97
2019-03-02T23:27:58.867Z,5.80
2019-03-02T23:30:26.690Z,11.63
2019-03-02T23:32:54.267Z,7.50
2019-03-02T23:35:21.818Z,8.53
2019-03-02T23:37:49.813Z,10.80
2019-03-02T23:40:17.545Z,9.87
2019-03-02T23:42:45.854Z,8.57
2019-03-02T23:45:13.786Z,10.83
2019-03-02T23:47:42.514Z,10.07
2019-03-02T23:50:10.221Z,10.80
2019-03-02T23:52:37.764Z,11.57
2019-03-02T23:55:05.854Z,7.67
2019-03-02T23:57:33.470Z,8.80
